sensor_id;sensor_type;location;lat;lon;timestamp;P1;durP1;ratioP1;P2;durP2;ratioP2
39654;SDS011;25336;59.944;11.010;2023-02-28T00:00:32;10.55;;;2.85;;
39654;SDS011;25336;59.944;11.010;2023-02-28T00:02:58;3.33;;;2.28;;
39654;SDS011;25336;59.944;11.010;2023-02-28T00:05:25;2.58;;;1.70;;
39654;SDS011;25336;59.944;11.010;2023-02-28T00:07:52;8.38;;;1.77;;
39654;SDS011;25336;59.944;11.010;2023-02-28T00:10:22;2.33;;;1.92;;
39654;SDS011;25336;59.944;11.010;2023-02-28T00:12:49;2.08;;;1.90;;
39654;SDS011;25336;59.944;11.010;2023-02-28T00:15:16;3.65;;;2.10;;
39654;SDS011;25336;59.944;11.010;2023-02-28T00:17:42;3.45;;;2.53;;
39654;SDS011;25336;59.944;11.010;2023-02-28T00:20:08;3.10;;;2.28;;
39654;SDS011;25336;59.944;11.010;2023-02-28T00:22:35;4.25;;;3.17;;
39654;SDS011;25336;59.944;11.010;2023-02-28T00:25:02;5.13;;;3.67;;
39654;SDS011;25336;59.944;11.010;2023-02-28T00:27:28;2.75;;;2.35;;
39654;SDS011;25336;59.944;11.010;2023-02-28T00:29:55;2.65;;;1.83;;
39654;SDS011;25336;59.944;11.010;2023-02-28T00:32:20;1.98;;;1.73;;
39654;SDS011;25336;59.944;11.010;2023-02-28T00:34:46;3.33;;;1.27;;
39654;SDS011;25336;59.944;11.010;2023-02-28T00:37:12;4.00;;;1.77;;
39654;SDS011;25336;59.944;11.010;2023-02-28T00:39:38;1.95;;;1.40;;
39654;SDS011;25336;59.944;11.010;2023-02-28T00:42:04;2.63;;;1.70;;
39654;SDS011;25336;59.944;11.010;2023-02-28T00:44:30;3.05;;;1.80;;
39654;SDS011;25336;59.944;11.010;2023-02-28T00:46:56;2.63;;;1.75;;
39654;SDS011;25336;59.944;11.010;2023-02-28T00:49:23;3.40;;;2.20;;
39654;SDS011;25336;59.944;11.010;2023-02-28T00:51:48;2.15;;;1.95;;
39654;SDS011;25336;59.944;11.010;2023-02-28T00:54:14;2.45;;;1.92;;
39654;SDS011;25336;59.944;11.010;2023-02-28T00:56:41;2.40;;;1.63;;
39654;SDS011;25336;59.944;11.010;2023-02-28T00:59:06;3.72;;;1.67;;
39654;SDS011;25336;59.944;11.010;2023-02-28T01:01:32;2.13;;;1.67;;
39654;SDS011;25336;59.944;11.010;2023-02-28T01:03:57;2.60;;;2.13;;
39654;SDS011;25336;59.944;11.010;2023-02-28T01:06:23;2.70;;;1.85;;
39654;SDS011;25336;59.944;11.010;2023-02-28T01:08:49;1.98;;;1.77;;
39654;SDS011;25336;59.944;11.010;2023-02-28T01:11:15;2.63;;;2.42;;
39654;SDS011;25336;59.944;11.010;2023-02-28T01:13:42;3.95;;;1.77;;
39654;SDS011;25336;59.944;11.010;2023-02-28T01:16:08;3.08;;;2.30;;
39654;SDS011;25336;59.944;11.010;2023-02-28T01:18:35;7.25;;;3.40;;
39654;SDS011;25336;59.944;11.010;2023-02-28T01:21:08;6.10;;;2.92;;
39654;SDS011;25336;59.944;11.010;2023-02-28T01:23:39;3.85;;;2.70;;
39654;SDS011;25336;59.944;11.010;2023-02-28T01:26:06;3.22;;;2.70;;
39654;SDS011;25336;59.944;11.010;2023-02-28T01:28:33;1.83;;;1.73;;
39654;SDS011;25336;59.944;11.010;2023-02-28T01:30:59;3.05;;;2.53;;
39654;SDS011;25336;59.944;11.010;2023-02-28T01:33:25;3.42;;;2.47;;
39654;SDS011;25336;59.944;11.010;2023-02-28T01:35:57;4.32;;;2.55;;
39654;SDS011;25336;59.944;11.010;2023-02-28T01:38:26;6.07;;;3.33;;
39654;SDS011;25336;59.944;11.010;2023-02-28T01:40:52;5.30;;;3.28;;
39654;SDS011;25336;59.944;11.010;2023-02-28T01:43:25;7.03;;;3.08;;
39654;SDS011;25336;59.944;11.010;2023-02-28T01:45:55;4.32;;;2.65;;
39654;SDS011;25336;59.944;11.010;2023-02-28T01:48:24;4.18;;;2.97;;
39654;SDS011;25336;59.944;11.010;2023-02-28T01:50:53;4.15;;;2.67;;
39654;SDS011;25336;59.944;11.010;2023-02-28T01:53:24;4.90;;;2.58;;
39654;SDS011;25336;59.944;11.010;2023-02-28T01:55:57;7.15;;;2.40;;
39654;SDS011;25336;59.944;11.010;2023-02-28T01:58:23;2.65;;;1.70;;
39654;SDS011;25336;59.944;11.010;2023-02-28T02:00:48;2.88;;;1.35;;
39654;SDS011;25336;59.944;11.010;2023-02-28T02:03:15;1.63;;;1.42;;
39654;SDS011;25336;59.944;11.010;2023-02-28T02:05:45;1.40;;;1.30;;
39654;SDS011;25336;59.944;11.010;2023-02-28T02:08:13;1.38;;;1.27;;
39654;SDS011;25336;59.944;11.010;2023-02-28T02:10:45;1.25;;;1.15;;
39654;SDS011;25336;59.944;11.010;2023-02-28T02:19:09;3.42;;;1.52;;
39654;SDS011;25336;59.944;11.010;2023-02-28T02:27:58;1.95;;;1.38;;
39654;SDS011;25336;59.944;11.010;2023-02-28T02:30:37;1.95;;;1.30;;
39654;SDS011;25336;59.944;11.010;2023-02-28T02:36:33;1.73;;;1.63;;
39654;SDS011;25336;59.944;11.010;2023-02-28T02:41:49;1.45;;;1.33;;
39654;SDS011;25336;59.944;11.010;2023-02-28T02:44:24;1.52;;;1.42;;
39654;SDS011;25336;59.944;11.010;2023-02-28T02:47:16;1.95;;;1.50;;
39654;SDS011;25336;59.944;11.010;2023-02-28T02:49:46;1.65;;;1.35;;
39654;SDS011;25336;59.944;11.010;2023-02-28T02:52:17;1.40;;;1.30;;
39654;SDS011;25336;59.944;11.010;2023-02-28T02:54:46;4.00;;;2.90;;
39654;SDS011;25336;59.944;11.010;2023-02-28T02:57:18;2.20;;;1.27;;
39654;SDS011;25336;59.944;11.010;2023-02-28T02:59:50;1.00;;;1.00;;
39654;SDS011;25336;59.944;11.010;2023-02-28T03:02:18;1.50;;;1.38;;
39654;SDS011;25336;59.944;11.010;2023-02-28T03:04:51;1.52;;;1.17;;
39654;SDS011;25336;59.944;11.010;2023-02-28T03:07:18;1.40;;;1.30;;
39654;SDS011;25336;59.944;11.010;2023-02-28T03:09:51;0.98;;;0.90;;
39654;SDS011;25336;59.944;11.010;2023-02-28T03:12:18;1.35;;;1.20;;
39654;SDS011;25336;59.944;11.010;2023-02-28T03:23:17;1.50;;;1.40;;
39654;SDS011;25336;59.944;11.010;2023-02-28T03:26:02;2.03;;;1.58;;
39654;SDS011;25336;59.944;11.010;2023-02-28T03:31:27;1.88;;;1.77;;
39654;SDS011;25336;59.944;11.010;2023-02-28T03:34:09;1.80;;;1.67;;
39654;SDS011;25336;59.944;11.010;2023-02-28T03:36:52;1.70;;;1.60;;
39654;SDS011;25336;59.944;11.010;2023-02-28T03:39:44;2.83;;;1.63;;
39654;SDS011;25336;59.944;11.010;2023-02-28T03:42:20;1.88;;;1.77;;
39654;SDS011;25336;59.944;11.010;2023-02-28T03:44:51;1.80;;;1.70;;
39654;SDS011;25336;59.944;11.010;2023-02-28T03:47:24;1.35;;;1.27;;
39654;SDS011;25336;59.944;11.010;2023-02-28T03:50:01;1.15;;;1.05;;
39654;SDS011;25336;59.944;11.010;2023-02-28T03:52:35;3.33;;;1.77;;
39654;SDS011;25336;59.944;11.010;2023-02-28T03:55:10;1.55;;;1.45;;
39654;SDS011;25336;59.944;11.010;2023-02-28T04:00:40;1.60;;;1.50;;
39654;SDS011;25336;59.944;11.010;2023-02-28T04:03:11;1.40;;;1.30;;
39654;SDS011;25336;59.944;11.010;2023-02-28T04:05:48;1.92;;;1.40;;
39654;SDS011;25336;59.944;11.010;2023-02-28T04:08:19;1.52;;;1.40;;
39654;SDS011;25336;59.944;11.010;2023-02-28T04:10:45;2.30;;;1.75;;
39654;SDS011;25336;59.944;11.010;2023-02-28T04:13:19;2.28;;;2.00;;
39654;SDS011;25336;59.944;11.010;2023-02-28T04:15:44;2.83;;;1.67;;
39654;SDS011;25336;59.944;11.010;2023-02-28T04:18:10;5.63;;;2.67;;
39654;SDS011;25336;59.944;11.010;2023-02-28T04:20:35;5.38;;;3.20;;
39654;SDS011;25336;59.944;11.010;2023-02-28T04:23:01;15.80;;;8.77;;
39654;SDS011;25336;59.944;11.010;2023-02-28T04:25:26;17.52;;;12.35;;
39654;SDS011;25336;59.944;11.010;2023-02-28T04:27:52;19.65;;;11.40;;
39654;SDS011;25336;59.944;11.010;2023-02-28T04:30:18;11.55;;;7.72;;
39654;SDS011;25336;59.944;11.010;2023-02-28T04:32:43;6.72;;;5.63;;
39654;SDS011;25336;59.944;11.010;2023-02-28T04:35:09;8.27;;;5.50;;
39654;SDS011;25336;59.944;11.010;2023-02-28T04:37:34;7.80;;;4.80;;
39654;SDS011;25336;59.944;11.010;2023-02-28T04:40:02;10.43;;;5.57;;
39654;SDS011;25336;59.944;11.010;2023-02-28T04:42:28;24.70;;;8.43;;
39654;SDS011;25336;59.944;11.010;2023-02-28T04:45:00;31.33;;;10.40;;
39654;SDS011;25336;59.944;11.010;2023-02-28T04:47:29;10.60;;;5.05;;
39654;SDS011;25336;59.944;11.010;2023-02-28T04:49:55;15.10;;;5.22;;
39654;SDS011;25336;59.944;11.010;2023-02-28T04:52:20;6.72;;;3.10;;
39654;SDS011;25336;59.944;11.010;2023-02-28T04:54:46;5.85;;;2.85;;
39654;SDS011;25336;59.944;11.010;2023-02-28T04:57:12;7.97;;;4.45;;
39654;SDS011;25336;59.944;11.010;2023-02-28T04:59:37;3.53;;;3.20;;
39654;SDS011;25336;59.944;11.010;2023-02-28T05:02:03;3.55;;;2.30;;
39654;SDS011;25336;59.944;11.010;2023-02-28T05:04:34;3.83;;;3.42;;
39654;SDS011;25336;59.944;11.010;2023-02-28T05:07:01;4.18;;;2.63;;
39654;SDS011;25336;59.944;11.010;2023-02-28T05:09:28;2.08;;;1.50;;
39654;SDS011;25336;59.944;11.010;2023-02-28T05:11:54;2.20;;;1.45;;
39654;SDS011;25336;59.944;11.010;2023-02-28T05:14:20;2.08;;;1.85;;
39654;SDS011;25336;59.944;11.010;2023-02-28T05:16:46;1.50;;;1.23;;
39654;SDS011;25336;59.944;11.010;2023-02-28T05:19:12;1.60;;;1.30;;
39654;SDS011;25336;59.944;11.010;2023-02-28T05:21:38;1.63;;;1.25;;
39654;SDS011;25336;59.944;11.010;2023-02-28T05:24:07;1.88;;;1.50;;
39654;SDS011;25336;59.944;11.010;2023-02-28T05:26:36;1.40;;;1.30;;
39654;SDS011;25336;59.944;11.010;2023-02-28T05:29:06;6.03;;;2.22;;
39654;SDS011;25336;59.944;11.010;2023-02-28T05:31:33;3.67;;;1.60;;
39654;SDS011;25336;59.944;11.010;2023-02-28T05:33:59;14.82;;;2.97;;
39654;SDS011;25336;59.944;11.010;2023-02-28T05:36:24;14.57;;;2.95;;
39654;SDS011;25336;59.944;11.010;2023-02-28T05:38:51;8.63;;;3.08;;
39654;SDS011;25336;59.944;11.010;2023-02-28T05:41:17;12.18;;;2.85;;
39654;SDS011;25336;59.944;11.010;2023-02-28T05:43:44;12.75;;;2.38;;
39654;SDS011;25336;59.944;11.010;2023-02-28T05:46:10;6.72;;;1.60;;
39654;SDS011;25336;59.944;11.010;2023-02-28T05:48:38;5.93;;;1.98;;
39654;SDS011;25336;59.944;11.010;2023-02-28T05:51:04;4.95;;;1.90;;
39654;SDS011;25336;59.944;11.010;2023-02-28T05:53:31;3.00;;;2.10;;
39654;SDS011;25336;59.944;11.010;2023-02-28T05:55:57;5.07;;;2.28;;
39654;SDS011;25336;59.944;11.010;2023-02-28T05:58:23;2.33;;;2.10;;
39654;SDS011;25336;59.944;11.010;2023-02-28T06:00:50;4.97;;;2.97;;
39654;SDS011;25336;59.944;11.010;2023-02-28T06:03:16;7.25;;;2.30;;
39654;SDS011;25336;59.944;11.010;2023-02-28T06:05:41;7.85;;;2.35;;
39654;SDS011;25336;59.944;11.010;2023-02-28T06:08:07;13.60;;;2.53;;
39654;SDS011;25336;59.944;11.010;2023-02-28T06:10:34;4.95;;;2.58;;
39654;SDS011;25336;59.944;11.010;2023-02-28T06:13:00;7.88;;;2.78;;
39654;SDS011;25336;59.944;11.010;2023-02-28T06:15:27;6.47;;;2.42;;
39654;SDS011;25336;59.944;11.010;2023-02-28T06:17:53;7.18;;;3.72;;
39654;SDS011;25336;59.944;11.010;2023-02-28T06:20:21;4.75;;;2.97;;
39654;SDS011;25336;59.944;11.010;2023-02-28T06:22:47;11.77;;;5.03;;
39654;SDS011;25336;59.944;11.010;2023-02-28T06:25:12;9.77;;;3.22;;
39654;SDS011;25336;59.944;11.010;2023-02-28T06:27:38;7.05;;;2.88;;
39654;SDS011;25336;59.944;11.010;2023-02-28T06:30:03;8.80;;;3.60;;
39654;SDS011;25336;59.944;11.010;2023-02-28T06:32:30;6.90;;;3.20;;
39654;SDS011;25336;59.944;11.010;2023-02-28T06:34:55;11.73;;;3.13;;
39654;SDS011;25336;59.944;11.010;2023-02-28T06:37:22;4.20;;;3.58;;
39654;SDS011;25336;59.944;11.010;2023-02-28T06:39:51;4.70;;;3.38;;
39654;SDS011;25336;59.944;11.010;2023-02-28T06:42:17;7.30;;;3.45;;
39654;SDS011;25336;59.944;11.010;2023-02-28T06:44:44;4.22;;;2.90;;
39654;SDS011;25336;59.944;11.010;2023-02-28T06:47:10;4.95;;;2.47;;
39654;SDS011;25336;59.944;11.010;2023-02-28T06:49:36;2.42;;;2.20;;
39654;SDS011;25336;59.944;11.010;2023-02-28T06:52:02;4.43;;;2.55;;
39654;SDS011;25336;59.944;11.010;2023-02-28T06:54:28;2.55;;;2.35;;
39654;SDS011;25336;59.944;11.010;2023-02-28T06:56:53;3.47;;;2.90;;
39654;SDS011;25336;59.944;11.010;2023-02-28T06:59:19;4.22;;;3.00;;
39654;SDS011;25336;59.944;11.010;2023-02-28T07:01:45;2.38;;;2.15;;
39654;SDS011;25336;59.944;11.010;2023-02-28T07:04:11;3.45;;;3.10;;
39654;SDS011;25336;59.944;11.010;2023-02-28T07:06:38;3.60;;;2.17;;
39654;SDS011;25336;59.944;11.010;2023-02-28T07:09:03;2.50;;;1.65;;
39654;SDS011;25336;59.944;11.010;2023-02-28T07:11:29;2.08;;;1.92;;
39654;SDS011;25336;59.944;11.010;2023-02-28T07:13:55;2.20;;;1.60;;
39654;SDS011;25336;59.944;11.010;2023-02-28T07:16:22;2.08;;;1.92;;
39654;SDS011;25336;59.944;11.010;2023-02-28T07:18:49;9.32;;;6.85;;
39654;SDS011;25336;59.944;11.010;2023-02-28T07:21:17;5.60;;;4.78;;
39654;SDS011;25336;59.944;11.010;2023-02-28T07:23:43;3.60;;;3.25;;
39654;SDS011;25336;59.944;11.010;2023-02-28T07:26:11;6.40;;;5.32;;
39654;SDS011;25336;59.944;11.010;2023-02-28T07:28:39;7.77;;;5.87;;
39654;SDS011;25336;59.944;11.010;2023-02-28T07:31:09;11.18;;;8.88;;
39654;SDS011;25336;59.944;11.010;2023-02-28T07:33:35;7.70;;;4.85;;
39654;SDS011;25336;59.944;11.010;2023-02-28T07:36:05;4.30;;;2.72;;
39654;SDS011;25336;59.944;11.010;2023-02-28T07:38:33;5.38;;;2.28;;
39654;SDS011;25336;59.944;11.010;2023-02-28T07:41:12;3.63;;;2.05;;
39654;SDS011;25336;59.944;11.010;2023-02-28T07:43:38;2.05;;;1.75;;
39654;SDS011;25336;59.944;11.010;2023-02-28T07:46:04;4.55;;;1.88;;
39654;SDS011;25336;59.944;11.010;2023-02-28T07:48:33;2.40;;;1.77;;
39654;SDS011;25336;59.944;11.010;2023-02-28T07:50:58;2.28;;;1.85;;
39654;SDS011;25336;59.944;11.010;2023-02-28T07:53:25;1.90;;;1.70;;
39654;SDS011;25336;59.944;11.010;2023-02-28T07:55:54;2.47;;;2.17;;
39654;SDS011;25336;59.944;11.010;2023-02-28T07:58:21;2.50;;;1.88;;
39654;SDS011;25336;59.944;11.010;2023-02-28T08:00:47;2.47;;;2.28;;
39654;SDS011;25336;59.944;11.010;2023-02-28T08:03:13;2.05;;;1.77;;
39654;SDS011;25336;59.944;11.010;2023-02-28T08:05:39;4.45;;;1.85;;
39654;SDS011;25336;59.944;11.010;2023-02-28T08:08:05;2.10;;;1.90;;
39654;SDS011;25336;59.944;11.010;2023-02-28T08:10:31;1.77;;;1.30;;
39654;SDS011;25336;59.944;11.010;2023-02-28T08:12:57;2.38;;;1.48;;
39654;SDS011;25336;59.944;11.010;2023-02-28T08:15:23;2.83;;;1.83;;
39654;SDS011;25336;59.944;11.010;2023-02-28T08:17:48;1.95;;;1.83;;
39654;SDS011;25336;59.944;11.010;2023-02-28T08:20:14;1.88;;;1.70;;
39654;SDS011;25336;59.944;11.010;2023-02-28T08:22:39;2.50;;;1.73;;
39654;SDS011;25336;59.944;11.010;2023-02-28T08:25:06;2.30;;;2.03;;
39654;SDS011;25336;59.944;11.010;2023-02-28T08:27:32;3.83;;;2.55;;
39654;SDS011;25336;59.944;11.010;2023-02-28T08:29:58;3.80;;;3.10;;
39654;SDS011;25336;59.944;11.010;2023-02-28T08:32:24;3.05;;;2.28;;
39654;SDS011;25336;59.944;11.010;2023-02-28T08:34:50;4.47;;;3.10;;
39654;SDS011;25336;59.944;11.010;2023-02-28T08:37:16;3.90;;;2.55;;
39654;SDS011;25336;59.944;11.010;2023-02-28T08:39:41;2.25;;;1.73;;
39654;SDS011;25336;59.944;11.010;2023-02-28T08:42:07;3.20;;;2.05;;
39654;SDS011;25336;59.944;11.010;2023-02-28T08:44:32;1.80;;;1.70;;
39654;SDS011;25336;59.944;11.010;2023-02-28T08:46:58;2.78;;;2.15;;
39654;SDS011;25336;59.944;11.010;2023-02-28T08:49:23;3.45;;;2.10;;
39654;SDS011;25336;59.944;11.010;2023-02-28T08:51:49;4.07;;;2.58;;
39654;SDS011;25336;59.944;11.010;2023-02-28T08:54:14;3.42;;;2.35;;
39654;SDS011;25336;59.944;11.010;2023-02-28T08:56:44;3.25;;;2.25;;
39654;SDS011;25336;59.944;11.010;2023-02-28T08:59:11;3.08;;;2.78;;
39654;SDS011;25336;59.944;11.010;2023-02-28T09:01:37;2.33;;;1.85;;
39654;SDS011;25336;59.944;11.010;2023-02-28T09:04:03;3.17;;;2.17;;
39654;SDS011;25336;59.944;11.010;2023-02-28T09:06:29;4.28;;;3.10;;
39654;SDS011;25336;59.944;11.010;2023-02-28T09:08:58;6.00;;;2.35;;
39654;SDS011;25336;59.944;11.010;2023-02-28T09:11:24;5.55;;;2.38;;
39654;SDS011;25336;59.944;11.010;2023-02-28T09:13:50;3.13;;;2.40;;
39654;SDS011;25336;59.944;11.010;2023-02-28T09:16:16;2.53;;;2.10;;
39654;SDS011;25336;59.944;11.010;2023-02-28T09:18:42;2.35;;;2.15;;
39654;SDS011;25336;59.944;11.010;2023-02-28T09:21:11;2.67;;;2.22;;
39654;SDS011;25336;59.944;11.010;2023-02-28T09:23:39;2.90;;;2.10;;
39654;SDS011;25336;59.944;11.010;2023-02-28T09:26:15;6.43;;;3.33;;
39654;SDS011;25336;59.944;11.010;2023-02-28T09:28:47;5.28;;;2.97;;
39654;SDS011;25336;59.944;11.010;2023-02-28T09:31:14;3.88;;;3.15;;
39654;SDS011;25336;59.944;11.010;2023-02-28T09:33:41;5.50;;;3.80;;
39654;SDS011;25336;59.944;11.010;2023-02-28T09:36:07;5.18;;;3.08;;
39654;SDS011;25336;59.944;11.010;2023-02-28T09:38:33;5.30;;;3.22;;
39654;SDS011;25336;59.944;11.010;2023-02-28T09:41:01;4.78;;;2.50;;
39654;SDS011;25336;59.944;11.010;2023-02-28T09:43:29;4.43;;;2.30;;
39654;SDS011;25336;59.944;11.010;2023-02-28T09:46:12;6.07;;;2.55;;
39654;SDS011;25336;59.944;11.010;2023-02-28T09:48:48;5.97;;;2.72;;
39654;SDS011;25336;59.944;11.010;2023-02-28T09:54:19;15.02;;;7.30;;
39654;SDS011;25336;59.944;11.010;2023-02-28T09:57:14;24.08;;;10.00;;
39654;SDS011;25336;59.944;11.010;2023-02-28T10:05:04;4.03;;;1.90;;
39654;SDS011;25336;59.944;11.010;2023-02-28T10:07:47;5.43;;;2.70;;
39654;SDS011;25336;59.944;11.010;2023-02-28T10:10:47;3.25;;;2.13;;
39654;SDS011;25336;59.944;11.010;2023-02-28T10:13:27;2.03;;;1.60;;
39654;SDS011;25336;59.944;11.010;2023-02-28T10:16:35;3.70;;;1.85;;
39654;SDS011;25336;59.944;11.010;2023-02-28T10:19:06;4.28;;;2.30;;
39654;SDS011;25336;59.944;11.010;2023-02-28T10:24:49;4.13;;;1.98;;
39654;SDS011;25336;59.944;11.010;2023-02-28T10:27:17;4.80;;;2.35;;
39654;SDS011;25336;59.944;11.010;2023-02-28T10:29:51;10.60;;;4.40;;
39654;SDS011;25336;59.944;11.010;2023-02-28T10:32:19;8.98;;;6.03;;
39654;SDS011;25336;59.944;11.010;2023-02-28T10:35:00;7.32;;;4.68;;
39654;SDS011;25336;59.944;11.010;2023-02-28T10:37:55;7.03;;;3.47;;
39654;SDS011;25336;59.944;11.010;2023-02-28T10:43:01;4.40;;;2.33;;
39654;SDS011;25336;59.944;11.010;2023-02-28T10:45:29;3.95;;;2.13;;
39654;SDS011;25336;59.944;11.010;2023-02-28T10:48:04;3.60;;;2.42;;
39654;SDS011;25336;59.944;11.010;2023-02-28T10:50:51;3.53;;;1.80;;
39654;SDS011;25336;59.944;11.010;2023-02-28T10:55:58;3.90;;;2.20;;
39654;SDS011;25336;59.944;11.010;2023-02-28T10:58:54;4.15;;;1.90;;
39654;SDS011;25336;59.944;11.010;2023-02-28T11:03:56;4.75;;;2.95;;
39654;SDS011;25336;59.944;11.010;2023-02-28T11:11:27;6.85;;;3.50;;
39654;SDS011;25336;59.944;11.010;2023-02-28T11:13:57;3.60;;;1.98;;
39654;SDS011;25336;59.944;11.010;2023-02-28T11:16:32;2.17;;;1.60;;
39654;SDS011;25336;59.944;11.010;2023-02-28T11:19:00;3.88;;;1.50;;
39654;SDS011;25336;59.944;11.010;2023-02-28T11:21:27;6.13;;;1.40;;
39654;SDS011;25336;59.944;11.010;2023-02-28T11:24:04;3.70;;;1.25;;
39654;SDS011;25336;59.944;11.010;2023-02-28T11:26:41;4.00;;;1.05;;
39654;SDS011;25336;59.944;11.010;2023-02-28T11:29:16;1.75;;;1.33;;
39654;SDS011;25336;59.944;11.010;2023-02-28T11:34:34;2.53;;;1.10;;
39654;SDS011;25336;59.944;11.010;2023-02-28T11:37:01;1.67;;;1.20;;
39654;SDS011;25336;59.944;11.010;2023-02-28T11:39:30;2.63;;;1.20;;
39654;SDS011;25336;59.944;11.010;2023-02-28T11:44:43;2.65;;;1.52;;
39654;SDS011;25336;59.944;11.010;2023-02-28T11:47:40;2.63;;;1.63;;
39654;SDS011;25336;59.944;11.010;2023-02-28T11:50:23;1.85;;;1.50;;
39654;SDS011;25336;59.944;11.010;2023-02-28T11:53:14;1.27;;;1.17;;
39654;SDS011;25336;59.944;11.010;2023-02-28T11:56:02;1.58;;;1.35;;
39654;SDS011;25336;59.944;11.010;2023-02-28T12:01:35;1.55;;;0.80;;
39654;SDS011;25336;59.944;11.010;2023-02-28T12:07:11;4.20;;;0.80;;
39654;SDS011;25336;59.944;11.010;2023-02-28T12:10:04;2.35;;;1.10;;
39654;SDS011;25336;59.944;11.010;2023-02-28T12:12:58;2.45;;;0.90;;
39654;SDS011;25336;59.944;11.010;2023-02-28T12:15:51;1.50;;;1.10;;
39654;SDS011;25336;59.944;11.010;2023-02-28T12:26:44;2.55;;;1.63;;
39654;SDS011;25336;59.944;11.010;2023-02-28T12:29:19;1.65;;;1.25;;
39654;SDS011;25336;59.944;11.010;2023-02-28T12:31:46;8.38;;;1.40;;
39654;SDS011;25336;59.944;11.010;2023-02-28T12:34:32;2.30;;;1.55;;
39654;SDS011;25336;59.944;11.010;2023-02-28T12:37:02;1.17;;;1.08;;
39654;SDS011;25336;59.944;11.010;2023-02-28T12:39:34;1.83;;;1.52;;
39654;SDS011;25336;59.944;11.010;2023-02-28T12:42:10;1.77;;;1.20;;
39654;SDS011;25336;59.944;11.010;2023-02-28T12:45:05;1.20;;;1.10;;
39654;SDS011;25336;59.944;11.010;2023-02-28T12:47:38;0.98;;;0.98;;
39654;SDS011;25336;59.944;11.010;2023-02-28T12:50:08;2.33;;;1.30;;
39654;SDS011;25336;59.944;11.010;2023-02-28T12:55:15;0.80;;;0.80;;
39654;SDS011;25336;59.944;11.010;2023-02-28T12:58:20;1.05;;;0.80;;
39654;SDS011;25336;59.944;11.010;2023-02-28T13:07:08;0.95;;;0.95;;
39654;SDS011;25336;59.944;11.010;2023-02-28T13:09:41;2.33;;;1.10;;
39654;SDS011;25336;59.944;11.010;2023-02-28T13:12:18;1.27;;;0.90;;
39654;SDS011;25336;59.944;11.010;2023-02-28T13:14:45;6.10;;;1.30;;
39654;SDS011;25336;59.944;11.010;2023-02-28T13:17:11;1.95;;;0.93;;
39654;SDS011;25336;59.944;11.010;2023-02-28T13:20:13;4.78;;;1.00;;
39654;SDS011;25336;59.944;11.010;2023-02-28T13:22:46;1.98;;;1.10;;
39654;SDS011;25336;59.944;11.010;2023-02-28T13:27:51;1.75;;;0.95;;
39654;SDS011;25336;59.944;11.010;2023-02-28T13:38:47;2.15;;;1.45;;
39654;SDS011;25336;59.944;11.010;2023-02-28T13:46:27;1.10;;;1.00;;
39654;SDS011;25336;59.944;11.010;2023-02-28T13:48:53;4.15;;;0.85;;
39654;SDS011;25336;59.944;11.010;2023-02-28T13:51:35;1.10;;;1.00;;
39654;SDS011;25336;59.944;11.010;2023-02-28T13:54:15;2.13;;;1.00;;
39654;SDS011;25336;59.944;11.010;2023-02-28T13:56:47;2.63;;;1.00;;
39654;SDS011;25336;59.944;11.010;2023-02-28T13:59:50;3.15;;;1.30;;
39654;SDS011;25336;59.944;11.010;2023-02-28T14:05:39;1.83;;;1.05;;
39654;SDS011;25336;59.944;11.010;2023-02-28T14:08:07;1.27;;;0.88;;
39654;SDS011;25336;59.944;11.010;2023-02-28T14:16:09;2.47;;;0.77;;
39654;SDS011;25336;59.944;11.010;2023-02-28T14:18:37;2.88;;;1.20;;
39654;SDS011;25336;59.944;11.010;2023-02-28T14:21:22;1.30;;;0.90;;
39654;SDS011;25336;59.944;11.010;2023-02-28T14:35:12;6.75;;;2.00;;
39654;SDS011;25336;59.944;11.010;2023-02-28T14:37:51;1.48;;;1.17;;
39654;SDS011;25336;59.944;11.010;2023-02-28T14:40:23;6.85;;;1.90;;
39654;SDS011;25336;59.944;11.010;2023-02-28T14:42:59;4.30;;;1.45;;
39654;SDS011;25336;59.944;11.010;2023-02-28T14:45:30;2.35;;;1.33;;
39654;SDS011;25336;59.944;11.010;2023-02-28T14:47:57;1.77;;;1.25;;
39654;SDS011;25336;59.944;11.010;2023-02-28T14:50:28;2.53;;;1.17;;
39654;SDS011;25336;59.944;11.010;2023-02-28T14:52:56;1.42;;;1.10;;
39654;SDS011;25336;59.944;11.010;2023-02-28T14:55:24;3.08;;;1.02;;
39654;SDS011;25336;59.944;11.010;2023-02-28T15:02:55;3.85;;;1.65;;
39654;SDS011;25336;59.944;11.010;2023-02-28T15:05:23;8.55;;;1.50;;
39654;SDS011;25336;59.944;11.010;2023-02-28T15:08:02;2.38;;;1.63;;
39654;SDS011;25336;59.944;11.010;2023-02-28T15:10:30;3.22;;;2.08;;
39654;SDS011;25336;59.944;11.010;2023-02-28T15:15:35;7.18;;;2.25;;
39654;SDS011;25336;59.944;11.010;2023-02-28T15:18:07;2.03;;;1.13;;
39654;SDS011;25336;59.944;11.010;2023-02-28T15:20:46;7.53;;;1.55;;
39654;SDS011;25336;59.944;11.010;2023-02-28T15:23:11;2.03;;;1.27;;
39654;SDS011;25336;59.944;11.010;2023-02-28T15:25:37;2.95;;;1.30;;
39654;SDS011;25336;59.944;11.010;2023-02-28T15:28:05;3.47;;;1.40;;
39654;SDS011;25336;59.944;11.010;2023-02-28T15:30:36;4.55;;;1.20;;
39654;SDS011;25336;59.944;11.010;2023-02-28T15:33:23;3.55;;;1.33;;
39654;SDS011;25336;59.944;11.010;2023-02-28T15:35:50;6.32;;;1.58;;
39654;SDS011;25336;59.944;11.010;2023-02-28T15:38:26;5.10;;;1.50;;
39654;SDS011;25336;59.944;11.010;2023-02-28T15:40:53;9.27;;;1.85;;
39654;SDS011;25336;59.944;11.010;2023-02-28T15:48:32;1.95;;;1.25;;
39654;SDS011;25336;59.944;11.010;2023-02-28T15:53:56;11.17;;;4.20;;
39654;SDS011;25336;59.944;11.010;2023-02-28T15:56:25;9.82;;;6.18;;
39654;SDS011;25336;59.944;11.010;2023-02-28T15:58:56;6.97;;;4.70;;
39654;SDS011;25336;59.944;11.010;2023-02-28T16:03:56;10.95;;;3.80;;
39654;SDS011;25336;59.944;11.010;2023-02-28T16:06:30;11.80;;;5.68;;
39654;SDS011;25336;59.944;11.010;2023-02-28T16:09:02;5.40;;;3.42;;
39654;SDS011;25336;59.944;11.010;2023-02-28T16:11:29;8.27;;;4.28;;
39654;SDS011;25336;59.944;11.010;2023-02-28T16:13:57;7.80;;;4.78;;
39654;SDS011;25336;59.944;11.010;2023-02-28T16:16:23;8.80;;;6.30;;
39654;SDS011;25336;59.944;11.010;2023-02-28T16:18:50;11.98;;;7.22;;
39654;SDS011;25336;59.944;11.010;2023-02-28T16:21:17;9.73;;;6.55;;
39654;SDS011;25336;59.944;11.010;2023-02-28T16:23:42;10.18;;;5.93;;
39654;SDS011;25336;59.944;11.010;2023-02-28T16:26:09;7.50;;;5.45;;
39654;SDS011;25336;59.944;11.010;2023-02-28T16:28:50;8.98;;;5.78;;
39654;SDS011;25336;59.944;11.010;2023-02-28T16:31:16;6.47;;;4.22;;
39654;SDS011;25336;59.944;11.010;2023-02-28T16:33:43;5.93;;;4.45;;
39654;SDS011;25336;59.944;11.010;2023-02-28T16:36:21;5.45;;;3.85;;
39654;SDS011;25336;59.944;11.010;2023-02-28T16:38:50;7.10;;;3.17;;
39654;SDS011;25336;59.944;11.010;2023-02-28T16:41:17;7.88;;;3.08;;
39654;SDS011;25336;59.944;11.010;2023-02-28T16:43:46;4.85;;;3.10;;
39654;SDS011;25336;59.944;11.010;2023-02-28T16:46:13;6.15;;;3.30;;
39654;SDS011;25336;59.944;11.010;2023-02-28T16:48:41;3.65;;;2.42;;
39654;SDS011;25336;59.944;11.010;2023-02-28T16:51:11;14.68;;;3.20;;
39654;SDS011;25336;59.944;11.010;2023-02-28T16:53:37;9.77;;;3.65;;
39654;SDS011;25336;59.944;11.010;2023-02-28T16:56:03;12.90;;;4.28;;
39654;SDS011;25336;59.944;11.010;2023-02-28T16:58:32;8.27;;;4.00;;
39654;SDS011;25336;59.944;11.010;2023-02-28T17:01:00;9.20;;;3.72;;
39654;SDS011;25336;59.944;11.010;2023-02-28T17:03:27;9.75;;;3.83;;
39654;SDS011;25336;59.944;11.010;2023-02-28T17:05:54;6.53;;;3.38;;
39654;SDS011;25336;59.944;11.010;2023-02-28T17:08:19;14.35;;;3.58;;
39654;SDS011;25336;59.944;11.010;2023-02-28T17:10:45;3.90;;;3.33;;